Time;durP1;ratioP1;P1;durP2;ratioP2;P2;SDS_P1;SDS_P2;PMS_P1;PMS_P2;Temp;Humidity;BMP_temperature;BMP_pressure;BME280_temperature;BME280_humidity;BME280_pressure;Samples;Min_cycle;Max_cycle;Signal;HPM_P1;HPM_P2
2023/04/22 00:01:23;;;;;;;;;;;;;;;;;;4907577;29;20386;-88
2023/04/22 00:03:48;;;;;;;;;;;;;;;;;;4927430;29;19919;-88
2023/04/22 00:06:14;;;;;;;;;;;;;;;;;;4934150;29;19915;-88
2023/04/22 00:08:39;;;;;;;;;;;;;;;;;;4922595;29;20434;-86
2023/04/22 00:11:05;;;;;;;;;;;;;;;;;;4933647;29;19915;-89
2023/04/22 00:13:30;;;;;;;;;;;;;;;;;;4929412;29;19997;-86
2023/04/22 00:15:56;;;;;;;;;;;;;;;;;;4927510;29;19926;-87
2023/04/22 00:18:21;;;;;;;;;;;;;;;;;;4920575;29;19915;-88
2023/04/22 00:20:47;;;;;;;;;;;;;;;;;;4916578;29;19946;-88
2023/04/22 00:31:12;;;;;;;;;;;;;;;;;;5125959;23;19919;-86
2023/04/22 00:33:41;;;;;;;;;;;;;;;;;;4941535;28;19982;-84
2023/04/22 00:41:36;;;;;;;;;;;;;;;;;;5087743;23;19912;-85
2023/04/22 00:49:38;;;;;;;;;;;;;;;;;;5042221;23;20402;-85
2023/04/22 00:52:06;;;;;;;;;;;;;;;;;;5095852;23;19952;-83
2023/04/22 00:54:32;;;;;;;;;;;;;;;;;;4910859;29;19903;-84
2023/04/22 00:56:58;;;;;;;;;;;;;;;;;;4926055;29;19918;-85
2023/04/22 00:59:44;;;;;;;;;;;;;;;;;;4940037;28;19904;-85
2023/04/22 01:02:30;;;;;;;;;;;;;;;;;;4941931;28;19930;-84
2023/04/22 01:05:26;;;;;;;;;;;;;;;;;;4929759;29;19927;-85
2023/04/22 01:10:34;;;;;;;;;;;;;;;;;;5845799;23;19935;-83
2023/04/22 01:13:00;;;;;;;;;;;;;;;;;;5152155;23;19951;-85
2023/04/22 01:15:53;;;;;;;;;;;;;;;;;;4909952;29;19967;-85
2023/04/22 01:18:26;;;;;;;;;;;;;;;;;;4922635;29;19976;-84
2023/04/22 01:21:02;;;;;;;;;;;;;;;;;;5138272;23;19949;-85
2023/04/22 01:23:37;;;;;;;;;;;;;;;;;;4965187;28;19974;-85
2023/04/22 01:26:10;;;;;;;;;;;;;;;;;;4944714;28;19919;-85
2023/04/22 01:28:36;;;;;;;;;;;;;;;;;;4957565;28;19926;-86
2023/04/22 01:31:18;;;;;;;;;;;;;;;;;;4985028;23;19931;-84
2023/04/22 01:33:44;;;;;;;;;;;;;;;;;;5567650;23;19927;-84
2023/04/22 01:36:20;;;;;;;;;;;;;;;;;;4926103;29;19938;-86
2023/04/22 01:38:56;;;;;;;;;;;;;;;;;;5451292;23;19927;-86
2023/04/22 01:41:34;;;;;;;;;;;;;;;;;;4912454;29;19962;-84
2023/04/22 01:52:26;;;;;;;;;;;;;;;;;;5403356;23;19922;-85
2023/04/22 01:54:55;;;;;;;;;;;;;;;;;;4960112;28;19926;-85
2023/04/22 02:00:26;;;;;;;;;;;;;;;;;;5404314;23;19918;-85
2023/04/22 02:02:52;;;;;;;;;;;;;;;;;;4964076;23;19978;-85
2023/04/22 02:11:12;;;;;;;;;;;;;;;;;;5395632;23;19912;-85
2023/04/22 02:16:22;;;;;;;;;;;;;;;;;;5999371;23;19937;-81
2023/04/22 02:21:35;;;;;;;;;;;;;;;;;;5800875;23;19940;-85
2023/04/22 02:26:49;;;;;;;;;;;;;;;;;;5861509;23;19946;-85
2023/04/22 02:29:16;;;;;;;;;;;;;;;;;;5299621;23;19998;-84
2023/04/22 02:31:50;;;;;;;;;;;;;;;;;;5533395;23;19919;-84
2023/04/22 02:34:18;;;;;;;;;;;;;;;;;;4944762;28;19926;-85
2023/04/22 02:36:51;;;;;;;;;;;;;;;;;;4944857;28;19961;-84
2023/04/22 02:39:17;;;;;;;;;;;;;;;;;;4913435;28;19903;-83
2023/04/22 02:41:43;;;;;;;;;;;;;;;;;;5033566;23;19925;-86
2023/04/22 02:44:09;;;;;;;;;;;;;;;;;;4925609;29;19908;-85
2023/04/22 02:49:28;;;;;;;;;;;;;;;;;;5493426;23;20808;-84
2023/04/22 02:54:36;;;;;;;;;;;;;;;;;;5275756;23;19911;-84
2023/04/22 03:07:43;;;;;;;;;;;;;;;;;;4957977;28;19974;-84
2023/04/22 03:10:09;;;;;;;;;;;;;;;;;;4928653;29;19999;-86
2023/04/22 03:12:34;;;;;;;;;;;;;;;;;;5118809;23;19927;-85
2023/04/22 03:25:54;;;;;;;;;;;;;;;;;;5727107;23;19990;-85
2023/04/22 03:31:03;;;;;;;;;;;;;;;;;;5740767;23;19929;-86
2023/04/22 03:36:26;;;;;;;;;;;;;;;;;;4886305;29;19918;-85
2023/04/22 03:41:41;;;;;;;;;;;;;;;;;;5657696;23;19911;-85
2023/04/22 03:44:24;;;;;;;;;;;;;;;;;;4974451;23;19998;-84
2023/04/22 04:06:00;;;;;;;;;;;;;;;;;;5359276;23;19926;-84
2023/04/22 04:11:10;;;;;;;;;;;;;;;;;;4959293;23;19911;-85
2023/04/22 04:13:46;;;;;;;;;;;;;;;;;;4922315;29;19986;-85
2023/04/22 04:16:56;;;;;;;;;;;;;;;;;;4922359;29;20008;-85
2023/04/22 04:19:32;;;;;;;;;;;;;;;;;;4907313;29;19935;-85
2023/04/22 04:25:02;;;;;;;;;;;;;;;;;;5082431;23;19958;-84
2023/04/22 04:27:40;;;;;;;;;;;;;;;;;;4924863;29;19947;-85
2023/04/22 04:30:23;;;;;;;;;;;;;;;;;;;;;
2023/04/22 04:35:36;;;;;;;;;;;;;;;;;;5588066;23;20155;-84
2023/04/22 04:43:43;;;;;;;;;;;;;;;;;;;;;
2023/04/22 04:49:11;;;;;;;;;;;;;;;;;;5282461;23;19931;-85
2023/04/22 04:51:58;;;;;;;;;;;;;;;;;;4915740;29;19919;-85
2023/04/22 04:54:28;;;;;;;;;;;;;;;;;;4903550;29;19955;-85
2023/04/22 04:57:06;;;;;;;;;;;;;;;;;;5589385;23;20911;-82
2023/04/22 04:59:40;;;;;;;;;;;;;;;;;;4938147;28;19928;-84
2023/04/22 05:05:24;;;;;;;;;;;;;;;;;;5186383;23;19925;-82
2023/04/22 05:08:15;;;;;;;;;;;;;;;;;;5157076;23;20455;-84
2023/04/22 05:13:47;;;;;;;;;;;;;;;;;;4948759;23;19912;-85
2023/04/22 05:24:27;;;;;;;;;;;;;;;;;;5316201;23;19934;-84
2023/04/22 05:26:59;;;;;;;;;;;;;;;;;;4925998;28;19942;-84
2023/04/22 05:29:25;;;;;;;;;;;;;;;;;;4926211;29;19934;-84
2023/04/22 05:31:53;;;;;;;;;;;;;;;;;;5118808;23;19934;-84
2023/04/22 05:37:12;;;;;;;;;;;;;;;;;;4880889;27;19967;-84
2023/04/22 05:39:41;;;;;;;;;;;;;;;;;;5447750;23;19949;-83
2023/04/22 05:42:16;;;;;;;;;;;;;;;;;;5086835;23;19911;-84
2023/04/22 05:47:35;;;;;;;;;;;;;;;;;;5790762;23;19923;-82
2023/04/22 05:52:43;;;;;;;;;;;;;;;;;;5699600;23;19920;-83
2023/04/22 05:55:12;;;;;;;;;;;;;;;;;;4925894;29;19971;-84
2023/04/22 06:06:11;;;;;;;;;;;;;;;;;;5819488;23;19919;-82
2023/04/22 06:08:38;;;;;;;;;;;;;;;;;;5747737;23;19962;-83
2023/04/22 06:20:01;;;;;;;;;;;;;;;;;;5931535;23;19925;-82
2023/04/22 06:28:06;;;;;;;;;;;;;;;;;;5903925;23;19930;-84
2023/04/22 06:36:11;;;;;;;;;;;;;;;;;;5880788;23;19940;-81
2023/04/22 06:47:02;;;;;;;;;;;;;;;;;;5982681;23;19921;-81
2023/04/22 07:19:18;;;;;;;;;;;;;;;;;;5531333;23;19918;-86
2023/04/22 07:21:44;;;;;;;;;;;;;;;;;;5251899;23;19926;-87
2023/04/22 07:40:21;;;;;;;;;;;;;;;;;;5824444;23;19919;-83
2023/04/22 07:42:46;;;;;;;;;;;;;;;;;;5202704;23;19912;-83
2023/04/22 07:50:37;;;;;;;;;;;;;;;;;;5894409;23;20919;-85
2023/04/22 07:53:20;;;;;;;;;;;;;;;;;;5364580;23;19942;-85
2023/04/22 07:58:42;;;;;;;;;;;;;;;;;;5619309;23;19928;-85
2023/04/22 08:03:49;;;;;;;;;;;;;;;;;;5429087;23;19911;-86
2023/04/22 08:06:18;;;;;;;;;;;;;;;;;;5092816;23;19912;-85
2023/04/22 08:08:55;;;;;;;;;;;;;;;;;;4979935;23;19927;-87
2023/04/22 08:11:24;;;;;;;;;;;;;;;;;;4912449;29;19950;-87
2023/04/22 08:13:50;;;;;;;;;;;;;;;;;;4920570;29;19916;-87
2023/04/22 08:16:16;;;;;;;;;;;;;;;;;;4891127;29;19925;-88
2023/04/22 08:18:42;;;;;;;;;;;;;;;;;;4911978;29;19916;-86
2023/04/22 08:21:07;;;;;;;;;;;;;;;;;;4906172;29;19930;-84
2023/04/22 08:23:34;;;;;;;;;;;;;;;;;;4901494;29;20019;-86
2023/04/22 08:25:59;;;;;;;;;;;;;;;;;;4877382;29;19922;-87
2023/04/22 08:28:25;;;;;;;;;;;;;;;;;;4869861;29;19958;-88
2023/04/22 08:30:51;;;;;;;;;;;;;;;;;;4888585;29;20023;-88
2023/04/22 08:33:16;;;;;;;;;;;;;;;;;;4913122;29;20404;-87
2023/04/22 08:35:42;;;;;;;;;;;;;;;;;;4910058;29;19915;-89
2023/04/22 08:38:08;;;;;;;;;;;;;;;;;;4889907;29;19971;-89
2023/04/22 08:40:33;;;;;;;;;;;;;;;;;;4884917;29;19994;-88
2023/04/22 08:42:58;;;;;;;;;;;;;;;;;;4888860;29;19926;-88
2023/04/22 08:45:24;;;;;;;;;;;;;;;;;;4894748;29;19923;-88
2023/04/22 08:47:49;;;;;;;;;;;;;;;;;;4884623;29;19916;-88
2023/04/22 08:50:15;;;;;;;;;;;;;;;;;;4910948;29;20010;-88
2023/04/22 08:52:41;;;;;;;;;;;;;;;;;;4930311;29;19972;-88
2023/04/22 08:55:06;;;;;;;;;;;;;;;;;;4874150;29;19950;-88
2023/04/22 08:57:32;;;;;;;;;;;;;;;;;;4896940;29;20503;-89
2023/04/22 08:59:57;;;;;;;;;;;;;;;;;;4891263;29;19954;-88
2023/04/22 09:02:23;;;;;;;;;;;;;;;;;;4888744;29;20288;-89
2023/04/22 09:04:48;;;;;;;;;;;;;;;;;;4882932;29;19966;-89
2023/04/22 09:07:16;;;;;;;;;;;;;;;;;;4906035;29;19915;-89
2023/04/22 09:09:43;;;;;;;;;;;;;;;;;;4907181;29;20415;-89
2023/04/22 09:12:10;;;;;;;;;;;;;;;;;;4911884;29;20003;-90
2023/04/22 09:14:35;;;;;;;;;;;;;;;;;;4885514;29;19915;-89
2023/04/22 09:17:01;;;;;;;;;;;;;;;;;;4880238;29;19920;-90
2023/04/22 09:19:26;;;;;;;;;;;;;;;;;;4900951;29;20458;-88
2023/04/22 09:21:51;;;;;;;;;;;;;;;;;;4898956;29;20376;-89
2023/04/22 09:24:19;;;;;;;;;;;;;;;;;;4901030;29;19923;-89
2023/04/22 09:26:44;;;;;;;;;;;;;;;;;;4898617;29;19915;-89
2023/04/22 09:29:10;;;;;;;;;;;;;;;;;;4913608;29;20283;-89
2023/04/22 09:31:39;;;;;;;;;;;;;;;;;;4890880;29;19916;-88
2023/04/22 09:34:05;;;;;;;;;;;;;;;;;;4899961;29;19915;-90
2023/04/22 09:36:36;;;;;;;;;;;;;;;;;;4887993;29;19923;-89
2023/04/22 09:39:08;;;;;;;;;;;;;;;;;;4882257;29;20402;-88
2023/04/22 09:41:34;;;;;;;;;;;;;;;;;;4888648;29;19915;-90
2023/04/22 09:44:00;;;;;;;;;;;;;;;;;;4885325;29;20372;-89
2023/04/22 09:46:25;;;;;;;;;;;;;;;;;;4881654;29;19915;-89
2023/04/22 09:48:52;;;;;;;;;;;;;;;;;;4896887;29;19915;-88
2023/04/22 09:51:18;;;;;;;;;;;;;;;;;;4897490;29;19958;-89
2023/04/22 09:53:43;;;;;;;;;;;;;;;;;;4881773;29;20014;-89
2023/04/22 09:56:09;;;;;;;;;;;;;;;;;;4881810;29;19926;-89
2023/04/22 09:58:34;;;;;;;;;;;;;;;;;;4898383;29;19915;-89
2023/04/22 10:01:02;;;;;;;;;;;;;;;;;;4895250;29;19915;-89
2023/04/22 10:03:28;;;;;;;;;;;;;;;;;;4876297;29;20022;-87
2023/04/22 10:05:54;;;;;;;;;;;;;;;;;;4876538;29;19915;-87
2023/04/22 10:08:19;;;;;;;;;;;;;;;;;;4889222;29;20300;-87
2023/04/22 10:10:45;;;;;;;;;;;;;;;;;;4883639;29;19938;-89
2023/04/22 10:13:10;;;;;;;;;;;;;;;;;;4877447;29;20368;-89
2023/04/22 10:15:36;;;;;;;;;;;;;;;;;;4889835;29;20353;-88
2023/04/22 10:18:01;;;;;;;;;;;;;;;;;;4873434;29;19987;-89
2023/04/22 10:20:27;;;;;;;;;;;;;;;;;;4898657;29;20244;-89
2023/04/22 10:22:53;;;;;;;;;;;;;;;;;;4869333;29;19919;-89
2023/04/22 10:25:19;;;;;;;;;;;;;;;;;;4876626;29;19943;-88
2023/04/22 10:27:44;;;;;;;;;;;;;;;;;;4893282;29;20359;-89
2023/04/22 10:30:10;;;;;;;;;;;;;;;;;;4888632;29;20390;-88
2023/04/22 10:32:35;;;;;;;;;;;;;;;;;;4888009;29;19987;-88
2023/04/22 10:35:01;;;;;;;;;;;;;;;;;;4882941;29;19975;-88
2023/04/22 10:37:26;;;;;;;;;;;;;;;;;;4892842;29;19934;-88
2023/04/22 10:39:52;;;;;;;;;;;;;;;;;;4909272;29;20276;-87
2023/04/22 10:42:17;;;;;;;;;;;;;;;;;;4904429;29;19919;-89
2023/04/22 10:44:43;;;;;;;;;;;;;;;;;;4886712;29;19923;-87
2023/04/22 10:47:09;;;;;;;;;;;;;;;;;;4908517;29;19916;-88
2023/04/22 10:49:34;;;;;;;;;;;;;;;;;;4917625;29;20375;-87
2023/04/22 10:52:02;;;;;;;;;;;;;;;;;;4882814;29;20414;-87
2023/04/22 10:54:28;;;;;;;;;;;;;;;;;;4907724;29;19919;-86
2023/04/22 10:56:54;;;;;;;;;;;;;;;;;;4893491;29;19916;-87
2023/04/22 10:59:20;;;;;;;;;;;;;;;;;;4896536;29;19923;-87
2023/04/22 11:01:45;;;;;;;;;;;;;;;;;;4899131;29;19923;-87
2023/04/22 11:04:11;;;;;;;;;;;;;;;;;;4898787;29;19915;-86
2023/04/22 11:06:36;;;;;;;;;;;;;;;;;;4892213;29;19927;-87
2023/04/22 11:09:01;;;;;;;;;;;;;;;;;;4889764;29;19926;-86
2023/04/22 11:11:27;;;;;;;;;;;;;;;;;;4880074;29;19916;-88
2023/04/22 11:13:53;;;;;;;;;;;;;;;;;;4901785;29;19983;-87
2023/04/22 11:16:19;;;;;;;;;;;;;;;;;;4899820;29;19920;-86
2023/04/22 11:18:45;;;;;;;;;;;;;;;;;;4887217;29;19915;-86
2023/04/22 11:21:11;;;;;;;;;;;;;;;;;;4889891;29;20006;-86
2023/04/22 11:23:37;;;;;;;;;;;;;;;;;;4894928;29;19950;-84
2023/04/22 11:26:03;;;;;;;;;;;;;;;;;;4907182;29;19935;-84
2023/04/22 11:28:28;;;;;;;;;;;;;;;;;;4917869;29;19937;-86
2023/04/22 11:30:54;;;;;;;;;;;;;;;;;;4906213;29;19922;-85
2023/04/22 11:33:19;;;;;;;;;;;;;;;;;;4911073;29;19919;-86
2023/04/22 11:35:45;;;;;;;;;;;;;;;;;;4909682;29;19915;-86
2023/04/22 11:38:10;;;;;;;;;;;;;;;;;;4871707;29;20344;-85
2023/04/22 11:40:36;;;;;;;;;;;;;;;;;;4913438;29;19938;-85
2023/04/22 11:43:01;;;;;;;;;;;;;;;;;;4879729;29;20280;-86
2023/04/22 11:45:27;;;;;;;;;;;;;;;;;;4906609;29;20351;-84
2023/04/22 11:47:52;;;;;;;;;;;;;;;;;;4905933;29;20244;-85
2023/04/22 11:50:18;;;;;;;;;;;;;;;;;;4913540;29;19966;-83
2023/04/22 11:52:44;;;;;;;;;;;;;;;;;;4902211;29;19915;-84
2023/04/22 11:55:10;;;;;;;;;;;;;;;;;;4895142;29;19912;-83
2023/04/22 11:57:35;;;;;;;;;;;;;;;;;;4867126;29;19919;-84
2023/04/22 12:00:01;;;;;;;;;;;;;;;;;;4895433;29;19915;-83
2023/04/22 12:02:26;;;;;;;;;;;;;;;;;;4885798;29;19938;-83
2023/04/22 12:04:52;;;;;;;;;;;;;;;;;;4897243;29;19915;-84
2023/04/22 12:07:18;;;;;;;;;;;;;;;;;;4905996;29;19915;-85
2023/04/22 12:09:43;;;;;;;;;;;;;;;;;;4890285;29;20023;-84
2023/04/22 12:12:09;;;;;;;;;;;;;;;;;;4882010;29;19922;-83
2023/04/22 12:14:36;;;;;;;;;;;;;;;;;;4902675;29;19925;-83
2023/04/22 12:17:01;;;;;;;;;;;;;;;;;;4912356;29;19922;-83
2023/04/22 12:19:27;;;;;;;;;;;;;;;;;;4907054;29;19915;-83
2023/04/22 12:21:52;;;;;;;;;;;;;;;;;;4900443;29;19942;-84
2023/04/22 12:24:21;;;;;;;;;;;;;;;;;;4898234;23;19966;-86
2023/04/22 12:26:46;;;;;;;;;;;;;;;;;;4903947;29;19919;-88
2023/04/22 12:29:12;;;;;;;;;;;;;;;;;;4911936;29;20295;-86
2023/04/22 12:31:37;;;;;;;;;;;;;;;;;;4917366;29;19942;-86
2023/04/22 12:34:03;;;;;;;;;;;;;;;;;;4900997;29;19922;-87
2023/04/22 12:36:28;;;;;;;;;;;;;;;;;;4882899;29;19919;-86
2023/04/22 12:38:53;;;;;;;;;;;;;;;;;;4903754;29;19915;-87
2023/04/22 12:41:19;;;;;;;;;;;;;;;;;;4915404;29;20315;-88
2023/04/22 12:43:45;;;;;;;;;;;;;;;;;;4871777;29;19920;-87
2023/04/22 12:46:10;;;;;;;;;;;;;;;;;;4892071;29;19915;-87
2023/04/22 12:48:36;;;;;;;;;;;;;;;;;;4886369;29;19971;-87
2023/04/22 12:51:01;;;;;;;;;;;;;;;;;;4896600;29;19915;-86
2023/04/22 12:53:27;;;;;;;;;;;;;;;;;;4907431;29;20005;-85
2023/04/22 12:55:52;;;;;;;;;;;;;;;;;;4905109;29;19931;-87
2023/04/22 12:58:17;;;;;;;;;;;;;;;;;;4913881;29;19951;-87
2023/04/22 13:00:43;;;;;;;;;;;;;;;;;;4901139;29;19926;-88
2023/04/22 13:03:08;;;;;;;;;;;;;;;;;;4911026;29;19954;-89
2023/04/22 13:05:34;;;;;;;;;;;;;;;;;;4907020;29;19941;-89
2023/04/22 13:08:00;;;;;;;;;;;;;;;;;;4887776;29;20423;-86
2023/04/22 13:10:27;;;;;;;;;;;;;;;;;;4913971;29;19915;-86
2023/04/22 13:12:52;;;;;;;;;;;;;;;;;;4900720;29;20352;-86
2023/04/22 13:15:18;;;;;;;;;;;;;;;;;;4908108;29;19922;-86
2023/04/22 13:17:43;;;;;;;;;;;;;;;;;;4898933;29;19919;-87
2023/04/22 13:20:11;;;;;;;;;;;;;;;;;;4909723;29;19919;-87
2023/04/22 13:22:39;;;;;;;;;;;;;;;;;;4912463;29;19915;-85
2023/04/22 13:25:05;;;;;;;;;;;;;;;;;;4901773;29;19923;-86
2023/04/22 13:27:30;;;;;;;;;;;;;;;;;;4888386;29;20010;-86
2023/04/22 13:29:56;;;;;;;;;;;;;;;;;;4871442;29;19915;-87
2023/04/22 13:32:21;;;;;;;;;;;;;;;;;;4901493;29;19922;-87
2023/04/22 13:34:47;;;;;;;;;;;;;;;;;;4896596;29;19915;-86
2023/04/22 13:37:18;;;;;;;;;;;;;;;;;;4887549;29;20331;-87
2023/04/22 13:39:43;;;;;;;;;;;;;;;;;;4904855;29;19916;-87
2023/04/22 13:42:08;;;;;;;;;;;;;;;;;;4909485;29;20043;-87
2023/04/22 13:44:34;;;;;;;;;;;;;;;;;;4899447;29;19919;-87
2023/04/22 13:46:59;;;;;;;;;;;;;;;;;;4871717;29;20386;-87
2023/04/22 13:49:25;;;;;;;;;;;;;;;;;;4873056;29;19919;-86
2023/04/22 13:51:51;;;;;;;;;;;;;;;;;;4903299;29;19916;-87
2023/04/22 13:54:16;;;;;;;;;;;;;;;;;;4901210;29;19916;-84
2023/04/22 13:56:42;;;;;;;;;;;;;;;;;;4900872;29;21261;-85
2023/04/22 13:59:07;;;;;;;;;;;;;;;;;;4911265;29;19915;-87
2023/04/22 14:01:33;;;;;;;;;;;;;;;;;;4927651;29;19961;-86
2023/04/22 14:03:59;;;;;;;;;;;;;;;;;;4931644;29;19914;-86
2023/04/22 14:06:24;;;;;;;;;;;;;;;;;;4906226;29;19915;-86
2023/04/22 14:08:49;;;;;;;;;;;;;;;;;;4913377;29;19927;-88
2023/04/22 14:11:15;;;;;;;;;;;;;;;;;;4904308;29;19919;-88
2023/04/22 14:13:40;;;;;;;;;;;;;;;;;;4894633;29;20314;-85
2023/04/22 14:16:10;;;;;;;;;;;;;;;;;;4910981;29;19919;-88
2023/04/22 14:18:36;;;;;;;;;;;;;;;;;;4887209;29;20333;-88
2023/04/22 14:21:01;;;;;;;;;;;;;;;;;;4916717;29;19915;-88
2023/04/22 14:23:26;;;;;;;;;;;;;;;;;;4894044;29;20291;-88
2023/04/22 14:25:52;;;;;;;;;;;;;;;;;;4896501;29;19915;-88
2023/04/22 14:28:17;;;;;;;;;;;;;;;;;;4907242;29;19986;-87
2023/04/22 14:30:43;;;;;;;;;;;;;;;;;;4909135;29;19955;-87
2023/04/22 14:33:08;;;;;;;;;;;;;;;;;;4924925;28;20000;-87
2023/04/22 14:35:33;;;;;;;;;;;;;;;;;;4935031;29;19911;-88
2023/04/22 14:37:59;;;;;;;;;;;;;;;;;;4925991;28;19951;-86
2023/04/22 14:40:28;;;;;;;;;;;;;;;;;;4919973;28;19971;-88
2023/04/22 14:42:53;;;;;;;;;;;;;;;;;;4921295;29;19915;-88
2023/04/22 14:45:18;;;;;;;;;;;;;;;;;;4927435;29;19990;-88
2023/04/22 14:47:44;;;;;;;;;;;;;;;;;;4927753;29;19908;-87
2023/04/22 14:50:09;;;;;;;;;;;;;;;;;;4900015;29;19976;-88
2023/04/22 14:52:35;;;;;;;;;;;;;;;;;;4911627;29;19923;-89
2023/04/22 14:55:02;;;;;;;;;;;;;;;;;;4885218;29;19915;-87
2023/04/22 14:57:27;;;;;;;;;;;;;;;;;;4889885;29;19919;-89
2023/04/22 14:59:53;;;;;;;;;;;;;;;;;;4918383;29;20046;-88
2023/04/22 15:02:18;;;;;;;;;;;;;;;;;;4888207;29;19922;-86
2023/04/22 15:04:44;;;;;;;;;;;;;;;;;;4915615;29;19922;-85
2023/04/22 15:07:09;;;;;;;;;;;;;;;;;;4898347;29;19916;-87
2023/04/22 15:09:35;;;;;;;;;;;;;;;;;;4898193;29;20315;-86
2023/04/22 15:12:03;;;;;;;;;;;;;;;;;;4897853;29;20285;-85
2023/04/22 15:14:29;;;;;;;;;;;;;;;;;;4914355;29;20336;-85
2023/04/22 15:16:54;;;;;;;;;;;;;;;;;;4898011;29;19978;-86
2023/04/22 15:19:20;;;;;;;;;;;;;;;;;;4902717;29;19915;-86
2023/04/22 15:21:45;;;;;;;;;;;;;;;;;;4909732;29;19920;-86
2023/04/22 15:24:13;;;;;;;;;;;;;;;;;;4914180;29;19919;-90
2023/04/22 15:26:39;;;;;;;;;;;;;;;;;;4903586;29;20595;-88
2023/04/22 15:29:04;;;;;;;;;;;;;;;;;;4914030;29;19919;-87
2023/04/22 15:31:30;;;;;;;;;;;;;;;;;;4908504;29;20406;-88
2023/04/22 15:33:55;;;;;;;;;;;;;;;;;;4894018;29;19919;-88
2023/04/22 15:36:21;;;;;;;;;;;;;;;;;;4911670;29;19919;-88
2023/04/22 15:38:46;;;;;;;;;;;;;;;;;;4903628;29;20275;-89
2023/04/22 15:41:12;;;;;;;;;;;;;;;;;;4913287;29;19927;-88
2023/04/22 15:43:37;;;;;;;;;;;;;;;;;;4899909;29;19915;-90
2023/04/22 15:46:03;;;;;;;;;;;;;;;;;;4896092;29;19915;-89
2023/04/22 15:48:28;;;;;;;;;;;;;;;;;;4901247;29;19915;-87
2023/04/22 15:50:53;;;;;;;;;;;;;;;;;;4903168;29;19915;-85
2023/04/22 15:53:19;;;;;;;;;;;;;;;;;;4875905;29;20380;-87
2023/04/22 15:55:44;;;;;;;;;;;;;;;;;;4885415;29;19983;-88
2023/04/22 15:58:10;;;;;;;;;;;;;;;;;;4885206;29;19916;-87
2023/04/22 16:00:35;;;;;;;;;;;;;;;;;;4898056;29;20352;-87
2023/04/22 16:03:01;;;;;;;;;;;;;;;;;;4897104;29;19916;-87
2023/04/22 16:05:28;;;;;;;;;;;;;;;;;;4903136;29;19927;-87
2023/04/22 16:07:53;;;;;;;;;;;;;;;;;;4893735;29;19923;-89
2023/04/22 16:10:19;;;;;;;;;;;;;;;;;;4909162;29;20355;-86
2023/04/22 16:12:44;;;;;;;;;;;;;;;;;;4919959;29;19903;-87
2023/04/22 16:15:09;;;;;;;;;;;;;;;;;;4912051;29;19978;-86
2023/04/22 16:17:35;;;;;;;;;;;;;;;;;;4926571;29;19927;-88
2023/04/22 16:20:00;;;;;;;;;;;;;;;;;;4930294;29;20017;-85
2023/04/22 16:22:26;;;;;;;;;;;;;;;;;;4919153;29;19926;-87
2023/04/22 16:24:51;;;;;;;;;;;;;;;;;;4929388;29;19979;-87
2023/04/22 16:27:17;;;;;;;;;;;;;;;;;;4913090;29;20287;-88
2023/04/22 16:29:43;;;;;;;;;;;;;;;;;;4908786;29;19915;-87
2023/04/22 16:32:08;;;;;;;;;;;;;;;;;;4903683;29;19916;-88
2023/04/22 16:34:35;;;;;;;;;;;;;;;;;;4899820;29;19977;-88
2023/04/22 16:37:01;;;;;;;;;;;;;;;;;;4907498;29;19923;-88
2023/04/22 16:39:26;;;;;;;;;;;;;;;;;;4915253;29;20284;-89
2023/04/22 16:41:51;;;;;;;;;;;;;;;;;;4907205;29;19915;-89
2023/04/22 16:44:18;;;;;;;;;;;;;;;;;;4902016;29;19923;-87
2023/04/22 16:46:43;;;;;;;;;;;;;;;;;;4914475;29;19960;-89
2023/04/22 16:49:10;;;;;;;;;;;;;;;;;;4915048;28;19911;-89
2023/04/22 16:51:35;;;;;;;;;;;;;;;;;;4931194;29;19934;-88
2023/04/22 16:54:01;;;;;;;;;;;;;;;;;;4934162;28;19967;-88
2023/04/22 16:56:27;;;;;;;;;;;;;;;;;;4925158;29;19915;-88
2023/04/22 16:58:53;;;;;;;;;;;;;;;;;;4937247;28;19903;-88
2023/04/22 17:01:22;;;;;;;;;;;;;;;;;;4928615;29;19978;-86
2023/04/22 17:03:48;;;;;;;;;;;;;;;;;;4904884;29;19915;-88
2023/04/22 17:06:14;;;;;;;;;;;;;;;;;;4918624;29;19915;-88
2023/04/22 17:08:40;;;;;;;;;;;;;;;;;;4920492;29;19915;-91
2023/04/22 17:11:05;;;;;;;;;;;;;;;;;;4903950;29;19919;-89
2023/04/22 17:13:30;;;;;;;;;;;;;;;;;;4914421;29;20317;-88
2023/04/22 17:15:56;;;;;;;;;;;;;;;;;;4905373;29;19916;-88
2023/04/22 17:18:24;;;;;;;;;;;;;;;;;;4903046;29;19975;-89
2023/04/22 17:20:49;;;;;;;;;;;;;;;;;;4918274;29;19918;-88
2023/04/22 17:23:15;;;;;;;;;;;;;;;;;;4894641;29;19919;-88
2023/04/22 17:25:41;;;;;;;;;;;;;;;;;;4910144;29;19955;-88
2023/04/22 17:28:06;;;;;;;;;;;;;;;;;;4887317;29;19920;-90
2023/04/22 17:30:32;;;;;;;;;;;;;;;;;;4901862;29;19915;-89
2023/04/22 17:33:00;;;;;;;;;;;;;;;;;;4880994;29;20101;-89
2023/04/22 17:35:25;;;;;;;;;;;;;;;;;;4881675;29;19927;-90
2023/04/22 17:37:52;;;;;;;;;;;;;;;;;;4892878;29;19942;-89
2023/04/22 17:40:21;;;;;;;;;;;;;;;;;;4915769;29;19915;-90
2023/04/22 17:42:46;;;;;;;;;;;;;;;;;;4904734;29;19922;-89
2023/04/22 17:45:12;;;;;;;;;;;;;;;;;;4926692;29;19899;-88
2023/04/22 17:47:37;;;;;;;;;;;;;;;;;;4907788;29;19967;-89
2023/04/22 17:50:03;;;;;;;;;;;;;;;;;;4925959;29;19926;-90
2023/04/22 17:52:29;;;;;;;;;;;;;;;;;;4903616;29;19908;-89
2023/04/22 17:54:55;;;;;;;;;;;;;;;;;;4872040;29;19915;-90
2023/04/22 17:57:21;;;;;;;;;;;;;;;;;;4906444;29;19916;-90
2023/04/22 17:59:46;;;;;;;;;;;;;;;;;;4923108;28;19919;-89
2023/04/22 18:02:12;;;;;;;;;;;;;;;;;;4921449;29;19940;-90
2023/04/22 18:04:37;;;;;;;;;;;;;;;;;;4927399;29;20302;-89
2023/04/22 18:07:02;;;;;;;;;;;;;;;;;;4890178;29;19922;-92
2023/04/22 18:09:34;;;;;;;;;;;;;;;;;;4897679;29;19915;-90
2023/04/22 18:12:00;;;;;;;;;;;;;;;;;;4908459;29;19927;-91
2023/04/22 18:14:26;;;;;;;;;;;;;;;;;;4917361;29;19919;-89
2023/04/22 18:16:52;;;;;;;;;;;;;;;;;;4919105;29;20351;-91
2023/04/22 18:19:17;;;;;;;;;;;;;;;;;;4911062;29;19924;-90
2023/04/22 18:21:43;;;;;;;;;;;;;;;;;;4898376;29;19944;-89
2023/04/22 18:24:08;;;;;;;;;;;;;;;;;;4912809;29;19920;-88
2023/04/22 18:26:34;;;;;;;;;;;;;;;;;;4901549;29;20311;-91
2023/04/22 18:28:59;;;;;;;;;;;;;;;;;;4916290;29;19915;-90
2023/04/22 18:31:25;;;;;;;;;;;;;;;;;;4908668;29;19919;-89
2023/04/22 18:33:50;;;;;;;;;;;;;;;;;;4898057;29;19962;-89
2023/04/22 18:36:17;;;;;;;;;;;;;;;;;;4912700;29;19919;-89
2023/04/22 18:38:42;;;;;;;;;;;;;;;;;;4900781;29;20176;-89
2023/04/22 18:41:09;;;;;;;;;;;;;;;;;;4911080;29;19967;-88
2023/04/22 18:43:35;;;;;;;;;;;;;;;;;;4908246;29;19915;-89
2023/04/22 18:46:00;;;;;;;;;;;;;;;;;;4883259;29;19919;-89
2023/04/22 18:48:26;;;;;;;;;;;;;;;;;;4902240;29;19927;-89
2023/04/22 18:50:51;;;;;;;;;;;;;;;;;;4880883;29;19916;-89
2023/04/22 18:53:17;;;;;;;;;;;;;;;;;;4897830;29;19919;-90
2023/04/22 18:55:42;;;;;;;;;;;;;;;;;;4911698;29;19955;-90
2023/04/22 18:58:08;;;;;;;;;;;;;;;;;;4915840;29;20290;-89
2023/04/22 19:00:33;;;;;;;;;;;;;;;;;;4869856;29;19919;-89
2023/04/22 19:02:58;;;;;;;;;;;;;;;;;;4893214;29;19915;-89
2023/04/22 19:05:24;;;;;;;;;;;;;;;;;;4908062;29;19922;-90
2023/04/22 19:07:50;;;;;;;;;;;;;;;;;;4911161;29;19941;-89
2023/04/22 19:10:15;;;;;;;;;;;;;;;;;;4916398;29;19919;-89
2023/04/22 19:12:41;;;;;;;;;;;;;;;;;;4916957;23;19900;-82
2023/04/22 19:15:08;;;;;;;;;;;;;;;;;;4900492;29;20002;-84
2023/04/22 19:17:37;;;;;;;;;;;;;;;;;;4893280;29;19923;-83
2023/04/22 19:20:04;;;;;;;;;;;;;;;;;;4882280;29;19916;-83
2023/04/22 19:22:30;;;;;;;;;;;;;;;;;;4882760;29;19915;-81
2023/04/22 19:24:57;;;;;;;;;;;;;;;;;;4901260;29;19974;-81
2023/04/22 19:27:22;;;;;;;;;;;;;;;;;;4900803;29;19922;-84
2023/04/22 19:29:50;;;;;;;;;;;;;;;;;;4881370;29;19916;-83
2023/04/22 19:32:16;;;;;;;;;;;;;;;;;;4888637;29;19916;-83
2023/04/22 19:34:42;;;;;;;;;;;;;;;;;;4897580;29;20374;-83
2023/04/22 19:37:08;;;;;;;;;;;;;;;;;;4871746;29;19983;-82
2023/04/22 19:39:34;;;;;;;;;;;;;;;;;;4894133;29;19951;-82
2023/04/22 19:41:59;;;;;;;;;;;;;;;;;;4896162;29;20660;-82
2023/04/22 19:44:24;;;;;;;;;;;;;;;;;;4888164;29;19916;-82
2023/04/22 19:46:50;;;;;;;;;;;;;;;;;;4897779;29;19916;-83
2023/04/22 19:49:16;;;;;;;;;;;;;;;;;;4867949;29;19920;-82
2023/04/22 19:51:41;;;;;;;;;;;;;;;;;;4890181;29;19915;-83
2023/04/22 19:54:07;;;;;;;;;;;;;;;;;;4897441;29;19923;-83
2023/04/22 19:56:33;;;;;;;;;;;;;;;;;;4896518;29;20004;-81
2023/04/22 19:58:58;;;;;;;;;;;;;;;;;;4901557;29;19922;-82
2023/04/22 20:01:23;;;;;;;;;;;;;;;;;;4909253;29;19915;-83
2023/04/22 20:03:49;;;;;;;;;;;;;;;;;;4887526;29;20300;-81
2023/04/22 20:06:15;;;;;;;;;;;;;;;;;;4894259;29;19915;-83
2023/04/22 20:08:41;;;;;;;;;;;;;;;;;;4867136;29;20331;-81
2023/04/22 20:11:06;;;;;;;;;;;;;;;;;;4892505;29;19919;-83
2023/04/22 20:13:35;;;;;;;;;;;;;;;;;;4873533;29;19935;-84
2023/04/22 20:16:00;;;;;;;;;;;;;;;;;;4890086;29;19987;-84
2023/04/22 20:18:26;;;;;;;;;;;;;;;;;;4897383;29;19915;-83
2023/04/22 20:20:56;;;;;;;;;;;;;;;;;;4884316;29;19916;-83
2023/04/22 20:23:21;;;;;;;;;;;;;;;;;;4890789;29;19951;-83
2023/04/22 20:25:47;;;;;;;;;;;;;;;;;;4890276;29;19915;-83
2023/04/22 20:28:13;;;;;;;;;;;;;;;;;;4884616;29;20439;-82
2023/04/22 20:30:38;;;;;;;;;;;;;;;;;;4895161;29;19916;-83
2023/04/22 20:33:04;;;;;;;;;;;;;;;;;;4885534;29;19938;-83
2023/04/22 20:35:30;;;;;;;;;;;;;;;;;;4874452;29;19919;-83
2023/04/22 20:37:56;;;;;;;;;;;;;;;;;;4891839;29;19919;-83
2023/04/22 20:40:22;;;;;;;;;;;;;;;;;;4898848;29;19923;-83